Station Historical Data
Daily Summary for May 19, 2017 Units:  Both    English   Metric
« Previous Day
Next Day »
Daily Weekly Monthly Yearly Custom
  High: Low: Average:
Temperature: 70.3 °F /  21.3 °C 54.2 °F /  12.3 °C 57.2 °F /  14 °C
Dew Point: 59.2 °F /  15.1 °C 44.1 °F /  6.7 °C 48.1 °F /  8.9 °C
Humidity: 84% 62% 72%
Wind Speed: 11.0mph /  17.7km/h - 2.8mph /  4.5km/h
Wind Gust: 13.0mph /  20.9km/h - -
Wind- - SW
Pressure: 30.20 in /  1022.6 hPa 29.79 in /  1008.7 hPa -
Precipitation: 0.00 in /  0 mm    
Historical Graphs
 
 
Tabular Data for May 19, 2017
Time Temperature Dew Point Pressure Wind Wind Speed Wind Gust Humidity Rainfall Rate (Hourly)
00:00 70.3 °F /  21.3 °C 58.8 °F /  14.9 °C 29.79in /  1008.7hPa West 4.0mph /  6.4km/h 11.0mph /  17.7km/h 67% 0.00in /  0mm
00:05 70.2 °F /  21.2 °C 58.7 °F /  14.8 °C 29.80in /  1009hPa WSW 4.0mph /  6.4km/h 11.0mph /  17.7km/h 67% 0.00in /  0mm
00:10 70.3 °F /  21.3 °C 59.2 °F /  15.1 °C 29.80in /  1009hPa SW 5.0mph /  8km/h 12.0mph /  19.3km/h 68% 0.00in /  0mm
00:15 69.9 °F /  21.1 °C 58.9 °F /  14.9 °C 29.81in /  1009.4hPa SW 3.0mph /  4.8km/h 8.0mph /  12.9km/h 68% 0.00in /  0mm
00:20 69.2 °F /  20.7 °C 58.6 °F /  14.8 °C 29.81in /  1009.4hPa WSW 4.0mph /  6.4km/h 8.0mph /  12.9km/h 69% 0.00in /  0mm
00:25 68.9 °F /  20.5 °C 58.7 °F /  14.8 °C 29.81in /  1009.4hPa WSW 7.0mph /  11.3km/h 7.0mph /  11.3km/h 70% 0.00in /  0mm
00:35 67.2 °F /  19.6 °C 57.1 °F /  13.9 °C 29.81in /  1009.4hPa SSW 4.0mph /  6.4km/h 10.0mph /  16.1km/h 70% 0.00in /  0mm
00:40 65.6 °F /  18.7 °C 56.3 °F /  13.5 °C 29.81in /  1009.4hPa SSW 2.0mph /  3.2km/h 8.0mph /  12.9km/h 72% 0.00in /  0mm
00:45 64.4 °F /  18 °C 55.9 °F /  13.3 °C 29.81in /  1009.4hPa SSW 6.0mph /  9.7km/h 10.0mph /  16.1km/h 74% 0.00in /  0mm
00:50 63.3 °F /  17.4 °C 55.2 °F /  12.9 °C 29.82in /  1009.7hPa SSW 2.0mph /  3.2km/h 6.0mph /  9.7km/h 75% 0.00in /  0mm
00:55 62.3 °F /  16.8 °C 55.0 °F /  12.8 °C 29.81in /  1009.4hPa South 4.0mph /  6.4km/h 7.0mph /  11.3km/h 77% 0.00in /  0mm
01:00 61.8 °F /  16.6 °C 54.9 °F /  12.7 °C 29.82in /  1009.7hPa SSW 4.0mph /  6.4km/h 8.0mph /  12.9km/h 78% 0.00in /  0mm
01:05 61.3 °F /  16.3 °C 54.4 °F /  12.4 °C 29.81in /  1009.4hPa SW 4.0mph /  6.4km/h 9.0mph /  14.5km/h 78% 0.00in /  0mm
01:10 61.1 °F /  16.2 °C 54.2 °F /  12.3 °C 29.82in /  1009.7hPa SW 3.0mph /  4.8km/h 9.0mph /  14.5km/h 78% 0.00in /  0mm
01:15 60.9 °F /  16.1 °C 54.3 °F /  12.4 °C 29.82in /  1009.7hPa West 4.0mph /  6.4km/h 8.0mph /  12.9km/h 79% 0.00in /  0mm
01:20 60.7 °F /  15.9 °C 54.1 °F /  12.3 °C 29.82in /  1009.7hPa SSW 3.0mph /  4.8km/h 7.0mph /  11.3km/h 79% 0.00in /  0mm
01:25 60.6 °F /  15.9 °C 54.0 °F /  12.2 °C 29.82in /  1009.7hPa SW 2.0mph /  3.2km/h 6.0mph /  9.7km/h 79% 0.00in /  0mm
01:30 60.4 °F /  15.8 °C 53.9 °F /  12.2 °C 29.83in /  1010hPa SW 3.0mph /  4.8km/h 6.0mph /  9.7km/h 79% 0.00in /  0mm
01:35 60.4 °F /  15.8 °C 53.9 °F /  12.2 °C 29.82in /  1009.7hPa SW 2.0mph /  3.2km/h 5.0mph /  8km/h 79% 0.00in /  0mm
01:40 60.3 °F /  15.7 °C 53.8 °F /  12.1 °C 29.82in /  1009.7hPa SW 3.0mph /  4.8km/h 4.0mph /  6.4km/h 79% 0.00in /  0mm
01:45 60.2 °F /  15.7 °C 53.7 °F /  12.1 °C 29.82in /  1009.7hPa Calm   4.0mph /  6.4km/h 79% 0.00in /  0mm
01:50 60.0 °F /  15.6 °C 53.8 °F /  12.1 °C 29.82in /  1009.7hPa SW 1.0mph /  1.6km/h 2.0mph /  3.2km/h 80% 0.00in /  0mm
01:55 59.9 °F /  15.5 °C 53.7 °F /  12.1 °C 29.82in /  1009.7hPa SW 1.0mph /  1.6km/h 3.0mph /  4.8km/h 80% 0.00in /  0mm
02:00 59.9 °F /  15.5 °C 53.7 °F /  12.1 °C 29.82in /  1009.7hPa SSW 2.0mph /  3.2km/h 4.0mph /  6.4km/h 80% 0.00in /  0mm
02:05 59.8 °F /  15.4 °C 53.6 °F /  12 °C 29.82in /  1009.7hPa SSW 2.0mph /  3.2km/h 4.0mph /  6.4km/h 80% 0.00in /  0mm
02:10 59.8 °F /  15.4 °C 53.6 °F /  12 °C 29.82in /  1009.7hPa SSW 1.0mph /  1.6km/h 3.0mph /  4.8km/h 80% 0.00in /  0mm
02:15 59.5 °F /  15.3 °C 53.3 °F /  11.8 °C 29.83in /  1010hPa SW 1.0mph /  1.6km/h 4.0mph /  6.4km/h 80% 0.00in /  0mm
02:20 59.4 °F /  15.2 °C 53.2 °F /  11.8 °C 29.83in /  1010hPa SW 2.0mph /  3.2km/h 5.0mph /  8km/h 80% 0.00in /  0mm
02:25 59.2 °F /  15.1 °C 53.4 °F /  11.9 °C 29.83in /  1010hPa SW 1.0mph /  1.6km/h 3.0mph /  4.8km/h 81% 0.00in /  0mm
02:30 59.1 °F /  15.1 °C 53.3 °F /  11.8 °C 29.83in /  1010hPa SSW 2.0mph /  3.2km/h 7.0mph /  11.3km/h 81% 0.00in /  0mm
02:35 58.8 °F /  14.9 °C 52.6 °F /  11.4 °C 29.84in /  1010.4hPa SSW 1.0mph /  1.6km/h 5.0mph /  8km/h 80% 0.00in /  0mm
02:40 58.5 °F /  14.7 °C 52.7 °F /  11.5 °C 29.84in /  1010.4hPa SW 4.0mph /  6.4km/h 5.0mph /  8km/h 81% 0.00in /  0mm
02:45 58.2 °F /  14.6 °C 52.4 °F /  11.3 °C 29.84in /  1010.4hPa WSW 2.0mph /  3.2km/h 6.0mph /  9.7km/h 81% 0.00in /  0mm
02:50 58.1 °F /  14.5 °C 52.3 °F /  11.3 °C 29.84in /  1010.4hPa SW 3.0mph /  4.8km/h 7.0mph /  11.3km/h 81% 0.00in /  0mm
02:55 57.9 °F /  14.4 °C 52.1 °F /  11.2 °C 29.84in /  1010.4hPa SW 3.0mph /  4.8km/h 8.0mph /  12.9km/h 81% 0.00in /  0mm
03:00 58.0 °F /  14.4 °C 52.2 °F /  11.2 °C 29.84in /  1010.4hPa SW 4.0mph /  6.4km/h 8.0mph /  12.9km/h 81% 0.00in /  0mm
03:05 57.9 °F /  14.4 °C 52.1 °F /  11.2 °C 29.85in /  1010.7hPa WSW 1.0mph /  1.6km/h 5.0mph /  8km/h 81% 0.00in /  0mm
03:10 57.8 °F /  14.3 °C 52.0 °F /  11.1 °C 29.85in /  1010.7hPa SW 2.0mph /  3.2km/h 5.0mph /  8km/h 81% 0.00in /  0mm
03:15 57.8 °F /  14.3 °C 52.0 °F /  11.1 °C 29.84in /  1010.4hPa SW 4.0mph /  6.4km/h 6.0mph /  9.7km/h 81% 0.00in /  0mm
03:20 57.8 °F /  14.3 °C 51.7 °F /  10.9 °C 29.85in /  1010.7hPa SW 3.0mph /  4.8km/h 6.0mph /  9.7km/h 80% 0.00in /  0mm
03:25 57.6 °F /  14.2 °C 51.8 °F /  11 °C 29.85in /  1010.7hPa WSW 1.0mph /  1.6km/h 5.0mph /  8km/h 81% 0.00in /  0mm
03:30 57.5 °F /  14.2 °C 51.7 °F /  10.9 °C 29.85in /  1010.7hPa SSW 2.0mph /  3.2km/h 5.0mph /  8km/h 81% 0.00in /  0mm
03:35 57.3 °F /  14.1 °C 51.5 °F /  10.8 °C 29.85in /  1010.7hPa SSW 2.0mph /  3.2km/h 5.0mph /  8km/h 81% 0.00in /  0mm
03:40 57.2 °F /  14 °C 51.4 °F /  10.8 °C 29.85in /  1010.7hPa WSW 2.0mph /  3.2km/h 4.0mph /  6.4km/h 81% 0.00in /  0mm
03:45 57.1 °F /  13.9 °C 51.7 °F /  10.9 °C 29.86in /  1011.1hPa West 2.0mph /  3.2km/h 6.0mph /  9.7km/h 82% 0.00in /  0mm
03:50 57.0 °F /  13.9 °C 51.6 °F /  10.9 °C 29.86in /  1011.1hPa WSW 3.0mph /  4.8km/h 6.0mph /  9.7km/h 82% 0.00in /  0mm
03:55 56.8 °F /  13.8 °C 51.4 °F /  10.8 °C 29.86in /  1011.1hPa WSW 2.0mph /  3.2km/h 4.0mph /  6.4km/h 82% 0.00in /  0mm
04:00 56.7 °F /  13.7 °C 51.3 °F /  10.7 °C 29.86in /  1011.1hPa WSW 1.0mph /  1.6km/h 3.0mph /  4.8km/h 82% 0.00in /  0mm
04:05 56.5 °F /  13.6 °C 51.1 °F /  10.6 °C 29.86in /  1011.1hPa SW 1.0mph /  1.6km/h 3.0mph /  4.8km/h 82% 0.00in /  0mm
04:10 56.4 °F /  13.6 °C 51.3 °F /  10.7 °C 29.86in /  1011.1hPa Calm   3.0mph /  4.8km/h 83% 0.00in /  0mm
04:15 56.2 °F /  13.4 °C 51.1 °F /  10.6 °C 29.86in /  1011.1hPa Calm     83% 0.00in /  0mm
04:20 55.9 °F /  13.3 °C 50.8 °F /  10.4 °C 29.86in /  1011.1hPa Calm   3.0mph /  4.8km/h 83% 0.00in /  0mm
04:25 55.7 °F /  13.2 °C 50.6 °F /  10.3 °C 29.86in /  1011.1hPa Calm   3.0mph /  4.8km/h 83% 0.00in /  0mm
04:30 55.6 °F /  13.1 °C 50.8 °F /  10.4 °C 29.87in /  1011.4hPa Calm     84% 0.00in /  0mm
04:35 55.6 °F /  13.1 °C 50.8 °F /  10.4 °C 29.88in /  1011.7hPa Calm     84% 0.00in /  0mm
04:40 55.6 °F /  13.1 °C 50.8 °F /  10.4 °C 29.88in /  1011.7hPa Calm     84% 0.00in /  0mm
04:45 55.7 °F /  13.2 °C 50.9 °F /  10.5 °C 29.88in /  1011.7hPa Calm     84% 0.00in /  0mm
04:50 56.0 °F /  13.3 °C 51.2 °F /  10.7 °C 29.89in /  1012.1hPa Calm     84% 0.00in /  0mm
04:55 56.1 °F /  13.4 °C 51.3 °F /  10.7 °C 29.89in /  1012.1hPa Calm   1.0mph /  1.6km/h 84% 0.00in /  0mm
05:00 56.3 °F /  13.5 °C 51.5 °F /  10.8 °C 29.89in /  1012.1hPa Calm   2.0mph /  3.2km/h 84% 0.00in /  0mm
05:05 56.5 °F /  13.6 °C 51.7 °F /  10.9 °C 29.90in /  1012.4hPa Calm   2.0mph /  3.2km/h 84% 0.00in /  0mm
05:10 56.5 °F /  13.6 °C 51.7 °F /  10.9 °C 29.90in /  1012.4hPa Calm     84% 0.00in /  0mm
05:15 56.6 °F /  13.7 °C 51.8 °F /  11 °C 29.90in /  1012.4hPa Calm     84% 0.00in /  0mm
05:20 56.6 °F /  13.7 °C 51.8 °F /  11 °C 29.91in /  1012.8hPa Calm     84% 0.00in /  0mm
05:25 56.6 °F /  13.7 °C 51.8 °F /  11 °C 29.91in /  1012.8hPa Calm     84% 0.00in /  0mm
05:30 56.7 °F /  13.7 °C 51.9 °F /  11.1 °C 29.91in /  1012.8hPa Calm     84% 0.00in /  0mm
05:35 57.0 °F /  13.9 °C 52.2 °F /  11.2 °C 29.91in /  1012.8hPa Calm     84% 0.00in /  0mm
05:40 57.2 °F /  14 °C 52.1 °F /  11.2 °C 29.91in /  1012.8hPa Calm     83% 0.00in /  0mm
05:45 57.3 °F /  14.1 °C 52.5 °F /  11.4 °C 29.91in /  1012.8hPa Calm     84% 0.00in /  0mm
05:50 57.7 °F /  14.3 °C 52.6 °F /  11.4 °C 29.92in /  1013.1hPa Calm     83% 0.00in /  0mm
05:55 58.4 °F /  14.7 °C 53.6 °F /  12 °C 29.92in /  1013.1hPa WSW 1.0mph /  1.6km/h 9.0mph /  14.5km/h 84% 0.00in /  0mm
06:00 59.5 °F /  15.3 °C 54.0 °F /  12.2 °C 29.92in /  1013.1hPa WSW 2.0mph /  3.2km/h 9.0mph /  14.5km/h 82% 0.00in /  0mm
06:05 60.2 °F /  15.7 °C 54.3 °F /  12.4 °C 29.92in /  1013.1hPa WSW 2.0mph /  3.2km/h 8.0mph /  12.9km/h 81% 0.00in /  0mm
06:10 60.0 °F /  15.6 °C 53.5 °F /  11.9 °C 29.92in /  1013.1hPa SW 2.0mph /  3.2km/h 6.0mph /  9.7km/h 79% 0.00in /  0mm
06:15 59.4 °F /  15.2 °C 53.2 °F /  11.8 °C 29.93in /  1013.4hPa WSW 1.0mph /  1.6km/h 4.0mph /  6.4km/h 80% 0.00in /  0mm
06:20 59.2 °F /  15.1 °C 53.4 °F /  11.9 °C 29.93in /  1013.4hPa SW 1.0mph /  1.6km/h 4.0mph /  6.4km/h 81% 0.00in /  0mm
06:25 58.4 °F /  14.7 °C 52.6 °F /  11.4 °C 29.93in /  1013.4hPa SW 2.0mph /  3.2km/h 6.0mph /  9.7km/h 81% 0.00in /  0mm
06:30 58.0 °F /  14.4 °C 52.5 °F /  11.4 °C 29.93in /  1013.4hPa SSW 3.0mph /  4.8km/h 6.0mph /  9.7km/h 82% 0.00in /  0mm
06:35 57.9 °F /  14.4 °C 52.8 °F /  11.6 °C 29.93in /  1013.4hPa SSW 2.0mph /  3.2km/h 6.0mph /  9.7km/h 83% 0.00in /  0mm
06:40 58.0 °F /  14.4 °C 52.9 °F /  11.6 °C 29.94in /  1013.8hPa SW 1.0mph /  1.6km/h 3.0mph /  4.8km/h 83% 0.00in /  0mm
06:45 58.1 °F /  14.5 °C 53.0 °F /  11.7 °C 29.94in /  1013.8hPa Calm   3.0mph /  4.8km/h 83% 0.00in /  0mm
06:50 58.2 °F /  14.6 °C 53.1 °F /  11.7 °C 29.94in /  1013.8hPa SW 1.0mph /  1.6km/h 3.0mph /  4.8km/h 83% 0.00in /  0mm
06:55 58.6 °F /  14.8 °C 53.1 °F /  11.7 °C 29.94in /  1013.8hPa West 1.0mph /  1.6km/h 3.0mph /  4.8km/h 82% 0.00in /  0mm
07:00 59.0 °F /  15 °C 52.5 °F /  11.4 °C 29.94in /  1013.8hPa WSW 3.0mph /  4.8km/h 10.0mph /  16.1km/h 79% 0.00in /  0mm
07:05 59.1 °F /  15.1 °C 51.9 °F /  11.1 °C 29.94in /  1013.8hPa West 3.0mph /  4.8km/h 11.0mph /  17.7km/h 77% 0.00in /  0mm
07:10 59.0 °F /  15 °C 51.4 °F /  10.8 °C 29.94in /  1013.8hPa West 5.0mph /  8km/h 9.0mph /  14.5km/h 76% 0.00in /  0mm
07:15 58.8 °F /  14.9 °C 51.2 °F /  10.7 °C 29.94in /  1013.8hPa WNW 8.0mph /  12.9km/h 10.0mph /  16.1km/h 76% 0.00in /  0mm
07:20 58.6 °F /  14.8 °C 51.1 °F /  10.6 °C 29.95in /  1014.1hPa West 5.0mph /  8km/h 10.0mph /  16.1km/h 76% 0.00in /  0mm
07:25 58.5 °F /  14.7 °C 51.0 °F /  10.6 °C 29.95in /  1014.1hPa West 5.0mph /  8km/h 9.0mph /  14.5km/h 76% 0.00in /  0mm
07:30 58.4 °F /  14.7 °C 50.5 °F /  10.3 °C 29.96in /  1014.4hPa West 5.0mph /  8km/h 10.0mph /  16.1km/h 75% 0.00in /  0mm
07:35 58.2 °F /  14.6 °C 50.7 °F /  10.4 °C 29.95in /  1014.1hPa WSW 4.0mph /  6.4km/h 12.0mph /  19.3km/h 76% 0.00in /  0mm
07:40 58.2 °F /  14.6 °C 50.7 °F /  10.4 °C 29.96in /  1014.4hPa West 5.0mph /  8km/h 9.0mph /  14.5km/h 76% 0.00in /  0mm
07:45 58.0 °F /  14.4 °C 50.5 °F /  10.3 °C 29.96in /  1014.4hPa SW 1.0mph /  1.6km/h 9.0mph /  14.5km/h 76% 0.00in /  0mm
07:50 57.8 °F /  14.3 °C 50.3 °F /  10.2 °C 29.97in /  1014.8hPa West 5.0mph /  8km/h 10.0mph /  16.1km/h 76% 0.00in /  0mm
07:55 57.6 °F /  14.2 °C 50.1 °F /  10.1 °C 29.97in /  1014.8hPa West 5.0mph /  8km/h 12.0mph /  19.3km/h 76% 0.00in /  0mm
08:00 57.3 °F /  14.1 °C 49.8 °F /  9.9 °C 29.97in /  1014.8hPa WNW 5.0mph /  8km/h 12.0mph /  19.3km/h 76% 0.00in /  0mm
08:05 57.0 °F /  13.9 °C 49.9 °F /  9.9 °C 29.98in /  1015.1hPa West 5.0mph /  8km/h 9.0mph /  14.5km/h 77% 0.00in /  0mm
08:10 56.6 °F /  13.7 °C 49.1 °F /  9.5 °C 29.98in /  1015.1hPa WNW 8.0mph /  12.9km/h 11.0mph /  17.7km/h 76% 0.00in /  0mm
08:15 56.2 °F /  13.4 °C 49.1 °F /  9.5 °C 29.98in /  1015.1hPa WNW 6.0mph /  9.7km/h 11.0mph /  17.7km/h 77% 0.00in /  0mm
08:20 56.0 °F /  13.3 °C 48.9 °F /  9.4 °C 29.99in /  1015.5hPa WNW 6.0mph /  9.7km/h 10.0mph /  16.1km/h 77% 0.00in /  0mm
08:25 56.2 °F /  13.4 °C 49.1 °F /  9.5 °C 29.99in /  1015.5hPa WNW 5.0mph /  8km/h 11.0mph /  17.7km/h 77% 0.00in /  0mm
08:30 56.3 °F /  13.5 °C 49.2 °F /  9.6 °C 29.99in /  1015.5hPa WNW 4.0mph /  6.4km/h 10.0mph /  16.1km/h 77% 0.00in /  0mm
08:35 56.3 °F /  13.5 °C 48.8 °F /  9.3 °C 30.00in /  1015.8hPa NW 5.0mph /  8km/h 10.0mph /  16.1km/h 76% 0.00in /  0mm
08:40 56.4 °F /  13.6 °C 48.9 °F /  9.4 °C 30.00in /  1015.8hPa SW 6.0mph /  9.7km/h 8.0mph /  12.9km/h 76% 0.00in /  0mm
08:45 56.7 °F /  13.7 °C 49.2 °F /  9.6 °C 30.00in /  1015.8hPa West 4.0mph /  6.4km/h 8.0mph /  12.9km/h 76% 0.00in /  0mm
08:50 56.9 °F /  13.8 °C 49.1 °F /  9.5 °C 30.00in /  1015.8hPa West 4.0mph /  6.4km/h 9.0mph /  14.5km/h 75% 0.00in /  0mm
08:55 57.0 °F /  13.9 °C 48.8 °F /  9.3 °C 30.00in /  1015.8hPa WNW 7.0mph /  11.3km/h 9.0mph /  14.5km/h 74% 0.00in /  0mm
09:00 56.9 °F /  13.8 °C 49.1 °F /  9.5 °C 30.01in /  1016.1hPa WNW 3.0mph /  4.8km/h 10.0mph /  16.1km/h 75% 0.00in /  0mm
09:05 57.1 °F /  13.9 °C 48.9 °F /  9.4 °C 30.01in /  1016.1hPa West 2.0mph /  3.2km/h 7.0mph /  11.3km/h 74% 0.00in /  0mm
09:10 56.8 °F /  13.8 °C 48.2 °F /  9 °C 30.01in /  1016.1hPa West 7.0mph /  11.3km/h 12.0mph /  19.3km/h 73% 0.00in /  0mm
09:15 56.5 °F /  13.6 °C 47.9 °F /  8.8 °C 30.01in /  1016.1hPa West 4.0mph /  6.4km/h 12.0mph /  19.3km/h 73% 0.00in /  0mm
09:20 56.1 °F /  13.4 °C 47.9 °F /  8.8 °C 30.01in /  1016.1hPa WNW 4.0mph /  6.4km/h 9.0mph /  14.5km/h 74% 0.00in /  0mm
09:25 56.1 °F /  13.4 °C 47.9 °F /  8.8 °C 30.01in /  1016.1hPa WNW 4.0mph /  6.4km/h 9.0mph /  14.5km/h 74% 0.00in /  0mm
09:30 56.0 °F /  13.3 °C 47.5 °F /  8.6 °C 30.01in /  1016.1hPa NW 3.0mph /  4.8km/h 10.0mph /  16.1km/h 73% 0.00in /  0mm
09:35 56.3 °F /  13.5 °C 48.1 °F /  8.9 °C 30.02in /  1016.5hPa WNW 4.0mph /  6.4km/h 10.0mph /  16.1km/h 74% 0.00in /  0mm
09:40 56.7 °F /  13.7 °C 48.1 °F /  8.9 °C 30.02in /  1016.5hPa West 4.0mph /  6.4km/h 7.0mph /  11.3km/h 73% 0.00in /  0mm
09:45 56.3 °F /  13.5 °C 47.4 °F /  8.6 °C 30.02in /  1016.5hPa NW 2.0mph /  3.2km/h 8.0mph /  12.9km/h 72% 0.00in /  0mm
09:50 55.7 °F /  13.2 °C 47.2 °F /  8.4 °C 30.02in /  1016.5hPa NW 5.0mph /  8km/h 9.0mph /  14.5km/h 73% 0.00in /  0mm
09:55 56.0 °F /  13.3 °C 47.5 °F /  8.6 °C 30.02in /  1016.5hPa West 4.0mph /  6.4km/h 8.0mph /  12.9km/h 73% 0.00in /  0mm
10:00 56.2 °F /  13.4 °C 47.7 °F /  8.7 °C 30.02in /  1016.5hPa NW 6.0mph /  9.7km/h 8.0mph /  12.9km/h 73% 0.00in /  0mm
10:05 56.6 °F /  13.7 °C 47.7 °F /  8.7 °C 30.02in /  1016.5hPa NNW 2.0mph /  3.2km/h 9.0mph /  14.5km/h 72% 0.00in /  0mm
10:10 56.7 °F /  13.7 °C 47.4 °F /  8.6 °C 30.02in /  1016.5hPa NW 6.0mph /  9.7km/h 8.0mph /  12.9km/h 71% 0.00in /  0mm
10:15 56.6 °F /  13.7 °C 46.9 °F /  8.3 °C 30.02in /  1016.5hPa NNW 4.0mph /  6.4km/h 9.0mph /  14.5km/h 70% 0.00in /  0mm
10:20 56.4 °F /  13.6 °C 47.1 °F /  8.4 °C 30.03in /  1016.8hPa NW 5.0mph /  8km/h 9.0mph /  14.5km/h 71% 0.00in /  0mm
10:25 55.5 °F /  13.1 °C 46.6 °F /  8.1 °C 30.03in /  1016.8hPa NNW 4.0mph /  6.4km/h 9.0mph /  14.5km/h 72% 0.00in /  0mm
10:30 55.4 °F /  13 °C 46.9 °F /  8.3 °C 30.03in /  1016.8hPa NNW 4.0mph /  6.4km/h 9.0mph /  14.5km/h 73% 0.00in /  0mm
10:35 55.7 °F /  13.2 °C 47.2 °F /  8.4 °C 30.04in /  1017.2hPa NW 4.0mph /  6.4km/h 9.0mph /  14.5km/h 73% 0.00in /  0mm
10:40 55.7 °F /  13.2 °C 46.8 °F /  8.2 °C 30.04in /  1017.2hPa NW 4.0mph /  6.4km/h 9.0mph /  14.5km/h 72% 0.00in /  0mm
10:45 56.5 °F /  13.6 °C 47.2 °F /  8.4 °C 30.04in /  1017.2hPa NW 4.0mph /  6.4km/h 12.0mph /  19.3km/h 71% 0.00in /  0mm
10:50 58.0 °F /  14.4 °C 48.6 °F /  9.2 °C 30.04in /  1017.2hPa NNW 11.0mph /  17.7km/h 11.0mph /  17.7km/h 71% 0.00in /  0mm
10:55 56.7 °F /  13.7 °C 47.0 °F /  8.3 °C 30.05in /  1017.5hPa NW 10.0mph /  16.1km/h 11.0mph /  17.7km/h 70% 0.00in /  0mm
11:00 56.4 °F /  13.6 °C 46.4 °F /  8 °C 30.05in /  1017.5hPa NW 5.0mph /  8km/h 10.0mph /  16.1km/h 69% 0.00in /  0mm
11:05 57.5 °F /  14.2 °C 48.9 °F /  9.4 °C 30.05in /  1017.5hPa NNW 3.0mph /  4.8km/h 8.0mph /  12.9km/h 73% 0.00in /  0mm
11:10 57.0 °F /  13.9 °C 46.1 °F /  7.8 °C 30.05in /  1017.5hPa NW 4.0mph /  6.4km/h 8.0mph /  12.9km/h 67% 0.00in /  0mm
11:15 56.3 °F /  13.5 °C 45.9 °F /  7.7 °C 30.05in /  1017.5hPa NNW 3.0mph /  4.8km/h 8.0mph /  12.9km/h 68% 0.00in /  0mm
11:20 56.1 °F /  13.4 °C 46.8 °F /  8.2 °C 30.06in /  1017.8hPa NNW 3.0mph /  4.8km/h 8.0mph /  12.9km/h 71% 0.00in /  0mm
11:25 56.3 °F /  13.5 °C 46.6 °F /  8.1 °C 30.06in /  1017.8hPa NNW 3.0mph /  4.8km/h 10.0mph /  16.1km/h 70% 0.00in /  0mm
11:30 55.8 °F /  13.2 °C 45.8 °F /  7.7 °C 30.06in /  1017.8hPa NNW 2.0mph /  3.2km/h 7.0mph /  11.3km/h 69% 0.00in /  0mm
11:35 56.0 °F /  13.3 °C 46.0 °F /  7.8 °C 30.06in /  1017.8hPa WNW 3.0mph /  4.8km/h 8.0mph /  12.9km/h 69% 0.00in /  0mm
11:40 57.1 °F /  13.9 °C 47.0 °F /  8.3 °C 30.06in /  1017.8hPa North 4.0mph /  6.4km/h 10.0mph /  16.1km/h 69% 0.00in /  0mm
11:45 57.2 °F /  14 °C 46.7 °F /  8.2 °C 30.06in /  1017.8hPa NW 3.0mph /  4.8km/h 10.0mph /  16.1km/h 68% 0.00in /  0mm
11:50 56.4 °F /  13.6 °C 45.2 °F /  7.3 °C 30.07in /  1018.2hPa NW 4.0mph /  6.4km/h 13.0mph /  20.9km/h 66% 0.00in /  0mm
11:55 56.7 °F /  13.7 °C 45.5 °F /  7.5 °C 30.06in /  1017.8hPa NW 4.0mph /  6.4km/h 13.0mph /  20.9km/h 66% 0.00in /  0mm
12:00 57.1 °F /  13.9 °C 47.0 °F /  8.3 °C 30.06in /  1017.8hPa North 2.0mph /  3.2km/h 11.0mph /  17.7km/h 69% 0.00in /  0mm
12:05 57.1 °F /  13.9 °C 46.2 °F /  7.9 °C 30.06in /  1017.8hPa NNW 4.0mph /  6.4km/h 10.0mph /  16.1km/h 67% 0.00in /  0mm
12:10 57.1 °F /  13.9 °C 45.4 °F /  7.4 °C 30.07in /  1018.2hPa North 2.0mph /  3.2km/h 7.0mph /  11.3km/h 65% 0.00in /  0mm
12:15 57.5 °F /  14.2 °C 46.2 °F /  7.9 °C 30.07in /  1018.2hPa NNW 3.0mph /  4.8km/h 8.0mph /  12.9km/h 66% 0.00in /  0mm
12:20 57.3 °F /  14.1 °C 46.4 °F /  8 °C 30.07in /  1018.2hPa NNW 3.0mph /  4.8km/h 8.0mph /  12.9km/h 67% 0.00in /  0mm
12:25 57.0 °F /  13.9 °C 45.7 °F /  7.6 °C 30.07in /  1018.2hPa NW 3.0mph /  4.8km/h 8.0mph /  12.9km/h 66% 0.00in /  0mm
12:30 57.3 °F /  14.1 °C 46.4 °F /  8 °C 30.07in /  1018.2hPa North 3.0mph /  4.8km/h 8.0mph /  12.9km/h 67% 0.00in /  0mm
12:35 57.4 °F /  14.1 °C 46.1 °F /  7.8 °C 30.08in /  1018.5hPa NNE 5.0mph /  8km/h 10.0mph /  16.1km/h 66% 0.00in /  0mm
12:40 57.3 °F /  14.1 °C 45.6 °F /  7.6 °C 30.08in /  1018.5hPa NW 5.0mph /  8km/h 10.0mph /  16.1km/h 65% 0.00in /  0mm
12:45 58.0 °F /  14.4 °C 46.7 °F /  8.2 °C 30.08in /  1018.5hPa NW 5.0mph /  8km/h 10.0mph /  16.1km/h 66% 0.00in /  0mm
12:50 58.6 °F /  14.8 °C 47.3 °F /  8.5 °C 30.09in /  1018.8hPa WNW 4.0mph /  6.4km/h 9.0mph /  14.5km/h 66% 0.00in /  0mm
12:55 58.2 °F /  14.6 °C 46.1 °F /  7.8 °C 30.08in /  1018.5hPa WNW 4.0mph /  6.4km/h 8.0mph /  12.9km/h 64% 0.00in /  0mm
13:00 57.4 °F /  14.1 °C 44.9 °F /  7.2 °C 30.08in /  1018.5hPa NW 4.0mph /  6.4km/h 9.0mph /  14.5km/h 63% 0.00in /  0mm
13:05 57.5 °F /  14.2 °C 45.0 °F /  7.2 °C 30.08in /  1018.5hPa WNW 2.0mph /  3.2km/h 10.0mph /  16.1km/h 63% 0.00in /  0mm
13:10 57.4 °F /  14.1 °C 44.9 °F /  7.2 °C 30.09in /  1018.8hPa NW 4.0mph /  6.4km/h 10.0mph /  16.1km/h 63% 0.00in /  0mm
13:15 57.4 °F /  14.1 °C 45.7 °F /  7.6 °C 30.09in /  1018.8hPa West 5.0mph /  8km/h 9.0mph /  14.5km/h 65% 0.00in /  0mm
13:20 57.6 °F /  14.2 °C 45.1 °F /  7.3 °C 30.09in /  1018.8hPa NNW 6.0mph /  9.7km/h 11.0mph /  17.7km/h 63% 0.00in /  0mm
13:25 57.1 °F /  13.9 °C 45.4 °F /  7.4 °C 30.09in /  1018.8hPa West 8.0mph /  12.9km/h 11.0mph /  17.7km/h 65% 0.00in /  0mm
13:30 56.6 °F /  13.7 °C 44.6 °F /  7 °C 30.09in /  1018.8hPa WSW 4.0mph /  6.4km/h 8.0mph /  12.9km/h 64% 0.00in /  0mm
13:35 56.7 °F /  13.7 °C 44.7 °F /  7.1 °C 30.09in /  1018.8hPa NW 4.0mph /  6.4km/h 8.0mph /  12.9km/h 64% 0.00in /  0mm
13:40 56.9 °F /  13.8 °C 44.8 °F /  7.1 °C 30.09in /  1018.8hPa NW 3.0mph /  4.8km/h 8.0mph /  12.9km/h 64% 0.00in /  0mm
13:45 57.6 °F /  14.2 °C 45.9 °F /  7.7 °C 30.09in /  1018.8hPa NW 3.0mph /  4.8km/h 6.0mph /  9.7km/h 65% 0.00in /  0mm
13:50 57.3 °F /  14.1 °C 45.2 °F /  7.3 °C 30.09in /  1018.8hPa NW 2.0mph /  3.2km/h 6.0mph /  9.7km/h 64% 0.00in /  0mm
13:55 56.6 °F /  13.7 °C 45.0 °F /  7.2 °C 30.09in /  1018.8hPa Calm   8.0mph /  12.9km/h 65% 0.00in /  0mm
14:00 57.0 °F /  13.9 °C 45.7 °F /  7.6 °C 30.09in /  1018.8hPa NW 3.0mph /  4.8km/h 7.0mph /  11.3km/h 66% 0.00in /  0mm
14:05 56.8 °F /  13.8 °C 44.7 °F /  7.1 °C 30.09in /  1018.8hPa NW 3.0mph /  4.8km/h 8.0mph /  12.9km/h 64% 0.00in /  0mm
14:10 56.9 °F /  13.8 °C 45.7 °F /  7.6 °C 30.08in /  1018.5hPa NW 4.0mph /  6.4km/h 8.0mph /  12.9km/h 66% 0.00in /  0mm
14:15 57.0 °F /  13.9 °C 44.5 °F /  6.9 °C 30.08in /  1018.5hPa NNW 3.0mph /  4.8km/h 6.0mph /  9.7km/h 63% 0.00in /  0mm
14:20 56.5 °F /  13.6 °C 45.3 °F /  7.4 °C 30.09in /  1018.8hPa North 3.0mph /  4.8km/h 7.0mph /  11.3km/h 66% 0.00in /  0mm
14:25 56.6 °F /  13.7 °C 44.6 °F /  7 °C 30.09in /  1018.8hPa NNW 3.0mph /  4.8km/h 7.0mph /  11.3km/h 64% 0.00in /  0mm
14:30 56.9 °F /  13.8 °C 45.3 °F /  7.4 °C 30.09in /  1018.8hPa NW 4.0mph /  6.4km/h 8.0mph /  12.9km/h 65% 0.00in /  0mm
14:35 57.2 °F /  14 °C 45.1 °F /  7.3 °C 30.09in /  1018.8hPa NW 4.0mph /  6.4km/h 9.0mph /  14.5km/h 64% 0.00in /  0mm
14:40 58.0 °F /  14.4 °C 45.9 °F /  7.7 °C 30.09in /  1018.8hPa WNW 5.0mph /  8km/h 10.0mph /  16.1km/h 64% 0.00in /  0mm
14:45 57.7 °F /  14.3 °C 44.8 °F /  7.1 °C 30.10in /  1019.2hPa NNW 3.0mph /  4.8km/h 8.0mph /  12.9km/h 62% 0.00in /  0mm
14:50 57.3 °F /  14.1 °C 45.6 °F /  7.6 °C 30.10in /  1019.2hPa NNW 4.0mph /  6.4km/h 10.0mph /  16.1km/h 65% 0.00in /  0mm
14:55 57.1 °F /  13.9 °C 45.4 °F /  7.4 °C 30.10in /  1019.2hPa WNW 3.0mph /  4.8km/h 8.0mph /  12.9km/h 65% 0.00in /  0mm
15:00 56.7 °F /  13.7 °C 44.7 °F /  7.1 °C 30.10in /  1019.2hPa West 4.0mph /  6.4km/h 11.0mph /  17.7km/h 64% 0.00in /  0mm
15:05 56.5 °F /  13.6 °C 44.5 °F /  6.9 °C 30.10in /  1019.2hPa NW 5.0mph /  8km/h 11.0mph /  17.7km/h 64% 0.00in /  0mm
15:10 57.2 °F /  14 °C 45.1 °F /  7.3 °C 30.11in /  1019.5hPa NW 5.0mph /  8km/h 9.0mph /  14.5km/h 64% 0.00in /  0mm
15:15 57.1 °F /  13.9 °C 45.0 °F /  7.2 °C 30.11in /  1019.5hPa WNW 4.0mph /  6.4km/h 11.0mph /  17.7km/h 64% 0.00in /  0mm
15:20 56.6 °F /  13.7 °C 44.1 °F /  6.7 °C 30.11in /  1019.5hPa WNW 5.0mph /  8km/h 11.0mph /  17.7km/h 63% 0.00in /  0mm
15:25 56.8 °F /  13.8 °C 44.7 °F /  7.1 °C 30.11in /  1019.5hPa WNW 4.0mph /  6.4km/h 10.0mph /  16.1km/h 64% 0.00in /  0mm
15:30 57.0 °F /  13.9 °C 44.9 °F /  7.2 °C 30.11in /  1019.5hPa WNW 4.0mph /  6.4km/h 9.0mph /  14.5km/h 64% 0.00in /  0mm
15:35 57.3 °F /  14.1 °C 45.2 °F /  7.3 °C 30.12in /  1019.9hPa WNW 4.0mph /  6.4km/h 8.0mph /  12.9km/h 64% 0.00in /  0mm
15:40 57.0 °F /  13.9 °C 44.5 °F /  6.9 °C 30.12in /  1019.9hPa NW 2.0mph /  3.2km/h 7.0mph /  11.3km/h 63% 0.00in /  0mm
15:45 57.3 °F /  14.1 °C 44.8 °F /  7.1 °C 30.12in /  1019.9hPa WNW 3.0mph /  4.8km/h 8.0mph /  12.9km/h 63% 0.00in /  0mm
15:50 56.8 °F /  13.8 °C 44.7 °F /  7.1 °C 30.12in /  1019.9hPa NW 8.0mph /  12.9km/h 11.0mph /  17.7km/h 64% 0.00in /  0mm
15:55 57.0 °F /  13.9 °C 45.7 °F /  7.6 °C 30.11in /  1019.5hPa West 3.0mph /  4.8km/h 10.0mph /  16.1km/h 66% 0.00in /  0mm
16:00 57.6 °F /  14.2 °C 45.5 °F /  7.5 °C 30.11in /  1019.5hPa West 5.0mph /  8km/h 10.0mph /  16.1km/h 64% 0.00in /  0mm
16:05 57.2 °F /  14 °C 45.1 °F /  7.3 °C 30.12in /  1019.9hPa West 4.0mph /  6.4km/h 8.0mph /  12.9km/h 64% 0.00in /  0mm
16:10 57.0 °F /  13.9 °C 44.9 °F /  7.2 °C 30.12in /  1019.9hPa NW 3.0mph /  4.8km/h 7.0mph /  11.3km/h 64% 0.00in /  0mm
16:15 56.2 °F /  13.4 °C 44.2 °F /  6.8 °C 30.12in /  1019.9hPa NNW 2.0mph /  3.2km/h 6.0mph /  9.7km/h 64% 0.00in /  0mm
16:20 56.4 °F /  13.6 °C 46.0 °F /  7.8 °C 30.11in /  1019.5hPa North 1.0mph /  1.6km/h 6.0mph /  9.7km/h 68% 0.00in /  0mm
16:25 56.5 °F /  13.6 °C 44.9 °F /  7.2 °C 30.12in /  1019.9hPa North 1.0mph /  1.6km/h 5.0mph /  8km/h 65% 0.00in /  0mm
16:30 56.8 °F /  13.8 °C 45.6 °F /  7.6 °C 30.12in /  1019.9hPa NNW 2.0mph /  3.2km/h 6.0mph /  9.7km/h 66% 0.00in /  0mm
16:35 56.9 °F /  13.8 °C 44.8 °F /  7.1 °C 30.11in /  1019.5hPa NNW 3.0mph /  4.8km/h 6.0mph /  9.7km/h 64% 0.00in /  0mm
16:40 56.6 °F /  13.7 °C 45.0 °F /  7.2 °C 30.11in /  1019.5hPa NNW 2.0mph /  3.2km/h 7.0mph /  11.3km/h 65% 0.00in /  0mm
16:45 56.5 °F /  13.6 °C 45.3 °F /  7.4 °C 30.11in /  1019.5hPa North 2.0mph /  3.2km/h 7.0mph /  11.3km/h 66% 0.00in /  0mm
16:50 56.2 °F /  13.4 °C 45.0 °F /  7.2 °C 30.11in /  1019.5hPa NNW 1.0mph /  1.6km/h 5.0mph /  8km/h 66% 0.00in /  0mm
16:55 56.6 °F /  13.7 °C 45.8 °F /  7.7 °C 30.11in /  1019.5hPa North 2.0mph /  3.2km/h 3.0mph /  4.8km/h 67% 0.00in /  0mm
17:00 57.4 °F /  14.1 °C 45.7 °F /  7.6 °C 30.10in /  1019.2hPa North 1.0mph /  1.6km/h 3.0mph /  4.8km/h 65% 0.00in /  0mm
17:05 58.1 °F /  14.5 °C 46.0 °F /  7.8 °C 30.11in /  1019.5hPa North 3.0mph /  4.8km/h 6.0mph /  9.7km/h 64% 0.00in /  0mm
17:10 58.2 °F /  14.6 °C 47.3 °F /  8.5 °C 30.11in /  1019.5hPa NNE 3.0mph /  4.8km/h 5.0mph /  8km/h 67% 0.00in /  0mm
17:15 58.1 °F /  14.5 °C 46.0 °F /  7.8 °C 30.11in /  1019.5hPa NE 2.0mph /  3.2km/h 5.0mph /  8km/h 64% 0.00in /  0mm
17:20 57.8 °F /  14.3 °C 46.1 °F /  7.8 °C 30.11in /  1019.5hPa NNE 3.0mph /  4.8km/h 5.0mph /  8km/h 65% 0.00in /  0mm
17:25 57.5 °F /  14.2 °C 45.4 °F /  7.4 °C 30.10in /  1019.2hPa North 2.0mph /  3.2km/h 7.0mph /  11.3km/h 64% 0.00in /  0mm
17:30 57.3 °F /  14.1 °C 45.6 °F /  7.6 °C 30.10in /  1019.2hPa NNW 3.0mph /  4.8km/h 7.0mph /  11.3km/h 65% 0.00in /  0mm
17:35 56.8 °F /  13.8 °C 45.6 °F /  7.6 °C 30.11in /  1019.5hPa NNW 3.0mph /  4.8km/h 8.0mph /  12.9km/h 66% 0.00in /  0mm
17:40 56.8 °F /  13.8 °C 45.6 °F /  7.6 °C 30.11in /  1019.5hPa North 3.0mph /  4.8km/h 8.0mph /  12.9km/h 66% 0.00in /  0mm
17:45 56.5 °F /  13.6 °C 45.3 °F /  7.4 °C 30.11in /  1019.5hPa North 3.0mph /  4.8km/h 8.0mph /  12.9km/h 66% 0.00in /  0mm
17:50 56.4 °F /  13.6 °C 45.2 °F /  7.3 °C 30.11in /  1019.5hPa North 3.0mph /  4.8km/h 8.0mph /  12.9km/h 66% 0.00in /  0mm
17:55 56.3 °F /  13.5 °C 45.5 °F /  7.5 °C 30.10in /  1019.2hPa North 3.0mph /  4.8km/h 8.0mph /  12.9km/h 67% 0.00in /  0mm
18:00 56.4 °F /  13.6 °C 45.6 °F /  7.6 °C 30.10in /  1019.2hPa NNE 3.0mph /  4.8km/h 5.0mph /  8km/h 67% 0.00in /  0mm
18:05 56.2 °F /  13.4 °C 45.4 °F /  7.4 °C 30.11in /  1019.5hPa North 2.0mph /  3.2km/h 8.0mph /  12.9km/h 67% 0.00in /  0mm
18:10 56.3 °F /  13.5 °C 45.5 °F /  7.5 °C 30.10in /  1019.2hPa NNW 4.0mph /  6.4km/h 7.0mph /  11.3km/h 67% 0.00in /  0mm
18:15 56.2 °F /  13.4 °C 45.4 °F /  7.4 °C 30.11in /  1019.5hPa North 2.0mph /  3.2km/h 8.0mph /  12.9km/h 67% 0.00in /  0mm
18:20 56.3 °F /  13.5 °C 45.5 °F /  7.5 °C 30.11in /  1019.5hPa North 3.0mph /  4.8km/h 4.0mph /  6.4km/h 67% 0.00in /  0mm
18:25 56.1 °F /  13.4 °C 44.9 °F /  7.2 °C 30.11in /  1019.5hPa NNW 3.0mph /  4.8km/h 8.0mph /  12.9km/h 66% 0.00in /  0mm
18:30 56.2 °F /  13.4 °C 45.0 °F /  7.2 °C 30.12in /  1019.9hPa NNW 3.0mph /  4.8km/h 8.0mph /  12.9km/h 66% 0.00in /  0mm
18:35 56.9 °F /  13.8 °C 46.1 °F /  7.8 °C 30.12in /  1019.9hPa North 2.0mph /  3.2km/h 7.0mph /  11.3km/h 67% 0.00in /  0mm
18:40 56.5 °F /  13.6 °C 45.3 °F /  7.4 °C 30.12in /  1019.9hPa NNW 1.0mph /  1.6km/h 5.0mph /  8km/h 66% 0.00in /  0mm
18:45 56.1 °F /  13.4 °C 44.1 °F /  6.7 °C 30.12in /  1019.9hPa NW 1.0mph /  1.6km/h 4.0mph /  6.4km/h 64% 0.00in /  0mm
18:50 56.4 °F /  13.6 °C 45.2 °F /  7.3 °C 30.11in /  1019.5hPa ENE 3.0mph /  4.8km/h 5.0mph /  8km/h 66% 0.00in /  0mm
18:55 56.5 °F /  13.6 °C 45.3 °F /  7.4 °C 30.11in /  1019.5hPa ENE 2.0mph /  3.2km/h 7.0mph /  11.3km/h 66% 0.00in /  0mm
19:00 56.7 °F /  13.7 °C 44.7 °F /  7.1 °C 30.11in /  1019.5hPa NE 3.0mph /  4.8km/h 8.0mph /  12.9km/h 64% 0.00in /  0mm
19:05 56.4 °F /  13.6 °C 44.8 °F /  7.1 °C 30.11in /  1019.5hPa NE 3.0mph /  4.8km/h 6.0mph /  9.7km/h 65% 0.00in /  0mm
19:10 56.3 °F /  13.5 °C 44.7 °F /  7.1 °C 30.12in /  1019.9hPa NE 5.0mph /  8km/h 9.0mph /  14.5km/h 65% 0.00in /  0mm
19:15 56.2 °F /  13.4 °C 44.6 °F /  7 °C 30.12in /  1019.9hPa East 2.0mph /  3.2km/h 7.0mph /  11.3km/h 65% 0.00in /  0mm
19:20 55.9 °F /  13.3 °C 44.7 °F /  7.1 °C 30.12in /  1019.9hPa NE 2.0mph /  3.2km/h 8.0mph /  12.9km/h 66% 0.00in /  0mm
19:25 55.6 °F /  13.1 °C 44.8 °F /  7.1 °C 30.12in /  1019.9hPa NE 2.0mph /  3.2km/h 8.0mph /  12.9km/h 67% 0.00in /  0mm
19:30 55.6 °F /  13.1 °C 44.8 °F /  7.1 °C 30.13in /  1020.2hPa NE 1.0mph /  1.6km/h 5.0mph /  8km/h 67% 0.00in /  0mm
19:35 55.7 °F /  13.2 °C 44.9 °F /  7.2 °C 30.12in /  1019.9hPa NE 3.0mph /  4.8km/h 7.0mph /  11.3km/h 67% 0.00in /  0mm
19:40 55.7 °F /  13.2 °C 44.9 °F /  7.2 °C 30.12in /  1019.9hPa NE 3.0mph /  4.8km/h 8.0mph /  12.9km/h 67% 0.00in /  0mm
19:45 55.8 °F /  13.2 °C 45.0 °F /  7.2 °C 30.12in /  1019.9hPa NNE 2.0mph /  3.2km/h 9.0mph /  14.5km/h 67% 0.00in /  0mm
19:50 55.8 °F /  13.2 °C 44.6 °F /  7 °C 30.13in /  1020.2hPa NE 4.0mph /  6.4km/h 8.0mph /  12.9km/h 66% 0.00in /  0mm
19:55 55.9 °F /  13.3 °C 45.1 °F /  7.3 °C 30.14in /  1020.5hPa NE 3.0mph /  4.8km/h 8.0mph /  12.9km/h 67% 0.00in /  0mm
20:00 55.8 °F /  13.2 °C 45.0 °F /  7.2 °C 30.13in /  1020.2hPa NE 3.0mph /  4.8km/h 8.0mph /  12.9km/h 67% 0.00in /  0mm
20:05 55.7 °F /  13.2 °C 44.9 °F /  7.2 °C 30.14in /  1020.5hPa NE 2.0mph /  3.2km/h 5.0mph /  8km/h 67% 0.00in /  0mm
20:10 55.7 °F /  13.2 °C 44.9 °F /  7.2 °C 30.14in /  1020.5hPa NE 2.0mph /  3.2km/h 7.0mph /  11.3km/h 67% 0.00in /  0mm
20:15 55.7 °F /  13.2 °C 45.3 °F /  7.4 °C 30.14in /  1020.5hPa NE 2.0mph /  3.2km/h 5.0mph /  8km/h 68% 0.00in /  0mm
20:20 55.6 °F /  13.1 °C 44.8 °F /  7.1 °C 30.15in /  1020.9hPa NE 2.0mph /  3.2km/h 4.0mph /  6.4km/h 67% 0.00in /  0mm
20:25 55.5 °F /  13.1 °C 45.1 °F /  7.3 °C 30.15in /  1020.9hPa NE 1.0mph /  1.6km/h 4.0mph /  6.4km/h 68% 0.00in /  0mm
20:30 55.4 °F /  13 °C 45.0 °F /  7.2 °C 30.15in /  1020.9hPa NNE 2.0mph /  3.2km/h 5.0mph /  8km/h 68% 0.00in /  0mm
20:35 55.5 °F /  13.1 °C 45.1 °F /  7.3 °C 30.15in /  1020.9hPa NE 2.0mph /  3.2km/h 7.0mph /  11.3km/h 68% 0.00in /  0mm
20:40 55.4 °F /  13 °C 45.0 °F /  7.2 °C 30.14in /  1020.5hPa NE 4.0mph /  6.4km/h 8.0mph /  12.9km/h 68% 0.00in /  0mm
20:45 55.3 °F /  12.9 °C 44.9 °F /  7.2 °C 30.14in /  1020.5hPa NE 5.0mph /  8km/h 8.0mph /  12.9km/h 68% 0.00in /  0mm
20:50 55.3 °F /  12.9 °C 44.9 °F /  7.2 °C 30.14in /  1020.5hPa ENE 3.0mph /  4.8km/h 5.0mph /  8km/h 68% 0.00in /  0mm
20:55 55.2 °F /  12.9 °C 45.2 °F /  7.3 °C 30.15in /  1020.9hPa NNE 1.0mph /  1.6km/h 5.0mph /  8km/h 69% 0.00in /  0mm
21:00 55.1 °F /  12.8 °C 45.1 °F /  7.3 °C 30.15in /  1020.9hPa NNE 2.0mph /  3.2km/h 5.0mph /  8km/h 69% 0.00in /  0mm
21:05 55.0 °F /  12.8 °C 45.0 °F /  7.2 °C 30.15in /  1020.9hPa North 2.0mph /  3.2km/h 4.0mph /  6.4km/h 69% 0.00in /  0mm
21:10 54.9 °F /  12.7 °C 44.9 °F /  7.2 °C 30.15in /  1020.9hPa NNE 2.0mph /  3.2km/h 5.0mph /  8km/h 69% 0.00in /  0mm
21:15 55.0 °F /  12.8 °C 45.4 °F /  7.4 °C 30.15in /  1020.9hPa NE 3.0mph /  4.8km/h 6.0mph /  9.7km/h 70% 0.00in /  0mm
21:20 54.9 °F /  12.7 °C 44.9 °F /  7.2 °C 30.15in /  1020.9hPa NE 4.0mph /  6.4km/h 9.0mph /  14.5km/h 69% 0.00in /  0mm
21:25 54.8 °F /  12.7 °C 44.8 °F /  7.1 °C 30.16in /  1021.2hPa NE 3.0mph /  4.8km/h 9.0mph /  14.5km/h 69% 0.00in /  0mm
21:30 54.7 °F /  12.6 °C 44.7 °F /  7.1 °C 30.17in /  1021.6hPa NE 1.0mph /  1.6km/h 3.0mph /  4.8km/h 69% 0.00in /  0mm
21:35 54.7 °F /  12.6 °C 45.1 °F /  7.3 °C 30.17in /  1021.6hPa Calm   4.0mph /  6.4km/h 70% 0.00in /  0mm
21:40 54.7 °F /  12.6 °C 44.7 °F /  7.1 °C 30.17in /  1021.6hPa ENE 2.0mph /  3.2km/h 5.0mph /  8km/h 69% 0.00in /  0mm
21:45 54.6 °F /  12.6 °C 44.6 °F /  7 °C 30.17in /  1021.6hPa NE 2.0mph /  3.2km/h 4.0mph /  6.4km/h 69% 0.00in /  0mm
21:50 54.7 °F /  12.6 °C 44.7 °F /  7.1 °C 30.17in /  1021.6hPa Calm   4.0mph /  6.4km/h 69% 0.00in /  0mm
21:55 54.7 °F /  12.6 °C 44.7 °F /  7.1 °C 30.18in /  1021.9hPa ENE 1.0mph /  1.6km/h 4.0mph /  6.4km/h 69% 0.00in /  0mm
22:00 54.7 °F /  12.6 °C 45.1 °F /  7.3 °C 30.18in /  1021.9hPa Calm   3.0mph /  4.8km/h 70% 0.00in /  0mm
22:05 54.6 °F /  12.6 °C 44.6 °F /  7 °C 30.18in /  1021.9hPa NE 1.0mph /  1.6km/h 5.0mph /  8km/h 69% 0.00in /  0mm
22:10 54.7 °F /  12.6 °C 44.7 °F /  7.1 °C 30.18in /  1021.9hPa ENE 2.0mph /  3.2km/h 5.0mph /  8km/h 69% 0.00in /  0mm
22:15 54.7 °F /  12.6 °C 44.7 °F /  7.1 °C 30.18in /  1021.9hPa ENE 2.0mph /  3.2km/h 7.0mph /  11.3km/h 69% 0.00in /  0mm
22:20 54.6 °F /  12.6 °C 44.6 °F /  7 °C 30.19in /  1022.2hPa ENE 2.0mph /  3.2km/h 7.0mph /  11.3km/h 69% 0.00in /  0mm
22:25 54.5 °F /  12.5 °C 44.9 °F /  7.2 °C 30.19in /  1022.2hPa NE 2.0mph /  3.2km/h 4.0mph /  6.4km/h 70% 0.00in /  0mm
22:30 54.6 °F /  12.6 °C 44.6 °F /  7 °C 30.18in /  1021.9hPa ENE 2.0mph /  3.2km/h 6.0mph /  9.7km/h 69% 0.00in /  0mm
22:35 54.6 °F /  12.6 °C 44.6 °F /  7 °C 30.19in /  1022.2hPa ENE 3.0mph /  4.8km/h 7.0mph /  11.3km/h 69% 0.00in /  0mm
22:40 54.6 °F /  12.6 °C 44.6 °F /  7 °C 30.19in /  1022.2hPa NE 2.0mph /  3.2km/h 6.0mph /  9.7km/h 69% 0.00in /  0mm
22:45 54.5 °F /  12.5 °C 44.5 °F /  6.9 °C 30.19in /  1022.2hPa NE 1.0mph /  1.6km/h 5.0mph /  8km/h 69% 0.00in /  0mm
22:50 54.5 °F /  12.5 °C 44.9 °F /  7.2 °C 30.20in /  1022.6hPa NE 1.0mph /  1.6km/h 2.0mph /  3.2km/h 70% 0.00in /  0mm
22:55 54.4 °F /  12.4 °C 44.8 °F /  7.1 °C 30.20in /  1022.6hPa Calm   3.0mph /  4.8km/h 70% 0.00in /  0mm
23:00 54.4 °F /  12.4 °C 44.8 °F /  7.1 °C 30.20in /  1022.6hPa NE 1.0mph /  1.6km/h 3.0mph /  4.8km/h 70% 0.00in /  0mm
23:05 54.4 °F /  12.4 °C 44.8 °F /  7.1 °C 30.19in /  1022.2hPa NE 1.0mph /  1.6km/h 4.0mph /  6.4km/h 70% 0.00in /  0mm
23:10 54.4 °F /  12.4 °C 44.8 °F /  7.1 °C 30.19in /  1022.2hPa NE 1.0mph /  1.6km/h 4.0mph /  6.4km/h 70% 0.00in /  0mm
23:15 54.4 °F /  12.4 °C 44.8 °F /  7.1 °C 30.19in /  1022.2hPa NE 2.0mph /  3.2km/h 5.0mph /  8km/h 70% 0.00in /  0mm
23:20 54.4 °F /  12.4 °C 44.8 °F /  7.1 °C 30.19in /  1022.2hPa NE 2.0mph /  3.2km/h 5.0mph /  8km/h 70% 0.00in /  0mm
23:25 54.3 °F /  12.4 °C 44.7 °F /  7.1 °C 30.19in /  1022.2hPa Calm   3.0mph /  4.8km/h 70% 0.00in /  0mm
23:30 54.3 °F /  12.4 °C 45.1 °F /  7.3 °C 30.19in /  1022.2hPa NE 2.0mph /  3.2km/h 4.0mph /  6.4km/h 71% 0.00in /  0mm
23:35 54.3 °F /  12.4 °C 45.1 °F /  7.3 °C 30.19in /  1022.2hPa NE 1.0mph /  1.6km/h 3.0mph /  4.8km/h 71% 0.00in /  0mm
23:40 54.3 °F /  12.4 °C 45.1 °F /  7.3 °C 30.20in /  1022.6hPa Calm   3.0mph /  4.8km/h 71% 0.00in /  0mm
23:45 54.3 °F /  12.4 °C 44.7 °F /  7.1 °C 30.19in /  1022.2hPa Calm   3.0mph /  4.8km/h 70% 0.00in /  0mm
23:50 54.3 °F /  12.4 °C 45.1 °F /  7.3 °C 30.20in /  1022.6hPa NE 1.0mph /  1.6km/h 5.0mph /  8km/h 71% 0.00in /  0mm
23:55 54.2 °F /  12.3 °C 44.6 °F /  7 °C 30.20in /  1022.6hPa NE 1.0mph /  1.6km/h 5.0mph /  8km/h 70% 0.00in /  0mm
Buffalo, New York, USA
Compliments of Weather Underground - 2.5 mb